createdAt,value
2023-04-27T00:02:56.019Z,71.43
2023-04-27T00:06:34.406Z,71.93
2023-04-27T00:10:27.904Z,71.51
2023-04-27T00:13:52.739Z,70.91
2023-04-27T00:17:30.141Z,71.52
2023-04-27T00:21:27.035Z,70.68
2023-04-27T00:25:12.822Z,71.13
2023-04-27T00:28:40.620Z,71.19
2023-04-27T00:32:16.579Z,71.62
2023-04-27T00:35:52.600Z,71.75
2023-04-27T00:39:49.630Z,71.34
2023-04-27T00:43:17.805Z,71.42
2023-04-27T00:47:13.600Z,71.96
2023-04-27T00:50:38.828Z,71.64
2023-04-27T00:54:36.901Z,71.71
2023-04-27T00:58:07.480Z,71.41
2023-04-27T01:02:01.161Z,71.93
2023-04-27T01:05:34.663Z,72.01
2023-04-27T01:09:06.990Z,71.78
2023-04-27T01:13:03.294Z,71.63
2023-04-27T01:16:49.653Z,71.57
2023-04-27T01:20:35.625Z,71.16
2023-04-27T01:24:20.576Z,71.28
2023-04-27T01:28:04.131Z,71.46
2023-04-27T01:31:28.655Z,71.78
2023-04-27T01:35:27.578Z,72.11
2023-04-27T01:39:11.524Z,72.26
2023-04-27T01:42:58.049Z,72.16
2023-04-27T01:46:41.143Z,71.97
2023-04-27T01:50:24.553Z,71.85
2023-04-27T01:53:49.175Z,71.92
2023-04-27T01:57:48.988Z,72.38
2023-04-27T02:01:15.053Z,72.06
2023-04-27T02:04:52.964Z,71.88
2023-04-27T02:08:49.331Z,71.62
2023-04-27T02:12:13.573Z,71.40
2023-04-27T02:15:51.026Z,71.35
2023-04-27T02:19:28.804Z,71.86
2023-04-27T02:23:06.923Z,72.05
2023-04-27T02:27:04.643Z,72.31
2023-04-27T02:30:50.439Z,72.30
2023-04-27T02:34:35.769Z,72.41
2023-04-27T02:38:02.459Z,72.40
2023-04-27T02:41:40.350Z,72.30
2023-04-27T02:45:37.705Z,72.51
2023-04-27T02:49:03.727Z,72.61
2023-04-27T02:52:43.928Z,72.70
2023-04-27T02:56:18.840Z,72.98
2023-04-27T02:59:56.584Z,72.71
2023-04-27T03:03:34.553Z,73.43
2023-04-27T03:07:12.954Z,72.93
2023-04-27T03:10:49.737Z,72.54
2023-04-27T03:14:46.118Z,72.48
2023-04-27T03:18:11.348Z,72.64
2023-04-27T03:22:09.274Z,72.82
2023-04-27T03:25:52.748Z,73.09
2023-04-27T03:29:17.524Z,73.68
2023-04-27T03:32:56.454Z,73.56
2023-04-27T03:36:32.491Z,73.52
2023-04-27T03:40:11.196Z,73.47
2023-04-27T03:44:06.702Z,74.68
2023-04-27T03:47:50.535Z,75.97
2023-04-27T03:51:35.317Z,75.32
2023-04-27T03:55:19.188Z,74.55
2023-04-27T03:59:04.084Z,74.22
2023-04-27T04:02:32.189Z,74.69
2023-04-27T04:06:10.794Z,74.64
2023-04-27T04:10:05.674Z,74.67
2023-04-27T04:13:31.755Z,74.62
2023-04-27T04:17:30.434Z,74.86
2023-04-27T04:20:56.364Z,74.90
2023-04-27T04:24:52.884Z,75.25
2023-04-27T04:28:36.558Z,75.24
2023-04-27T04:32:03.665Z,75.14
2023-04-27T04:36:00.465Z,74.96
2023-04-27T04:39:48.664Z,75.06
2023-04-27T04:43:33.689Z,74.72
2023-04-27T04:47:19.787Z,74.83
2023-04-27T04:51:06.420Z,75.16
2023-04-27T04:54:31.271Z,75.54
2023-04-27T04:58:08.414Z,75.38
2023-04-27T05:01:46.670Z,75.79
2023-04-27T05:05:42.683Z,75.45
2023-04-27T05:09:25.672Z,75.42
2023-04-27T05:12:49.869Z,75.48
2023-04-27T05:16:48.509Z,75.12
2023-04-27T05:20:35.210Z,75.10
2023-04-27T05:24:18.420Z,75.14
2023-04-27T05:27:42.789Z,75.61
2023-04-27T05:31:39.331Z,75.94
2023-04-27T05:35:06.084Z,76.14
2023-04-27T05:38:41.660Z,75.95
2023-04-27T05:42:20.176Z,75.87
2023-04-27T05:45:56.690Z,75.27
2023-04-27T05:49:36.758Z,75.46
2023-04-27T05:53:32.569Z,75.19
2023-04-27T05:56:56.782Z,76.88
2023-04-27T06:00:34.480Z,76.47
2023-04-27T06:04:12.069Z,76.23
2023-04-27T06:08:08.584Z,75.94
2023-04-27T06:11:51.970Z,75.55
2023-04-27T06:15:35.875Z,75.64
2023-04-27T06:19:00.571Z,76.29
2023-04-27T06:22:39.984Z,75.52
2023-04-27T06:26:34.734Z,75.23
2023-04-27T06:29:59.536Z,74.79
2023-04-27T06:33:36.674Z,74.39
2023-04-27T06:37:17.105Z,73.78
2023-04-27T06:41:12.970Z,73.29
2023-04-27T06:44:58.239Z,72.93
2023-04-27T06:48:22.770Z,72.56
2023-04-27T06:52:21.664Z,71.48
2023-04-27T06:56:10.958Z,71.07
2023-04-27T06:59:35.751Z,69.45
2023-04-27T07:03:36.137Z,69.02
2023-04-27T07:07:22.651Z,69.18
2023-04-27T07:10:47.044Z,68.44
2023-04-27T07:14:25.172Z,67.15
2023-04-27T07:18:02.307Z,67.47
2023-04-27T07:21:42.271Z,66.69
2023-04-27T07:25:39.596Z,65.90
2023-04-27T07:29:14.568Z,65.79
2023-04-27T07:32:54.469Z,64.74
2023-04-27T07:36:46.126Z,65.19
2023-04-27T07:40:31.916Z,64.20
2023-04-27T07:44:17.665Z,63.48
2023-04-27T07:48:03.830Z,63.27
2023-04-27T07:51:46.967Z,62.91
2023-04-27T07:55:30.435Z,62.84
2023-04-27T07:58:57.381Z,61.55
2023-04-27T08:02:54.330Z,62.18
2023-04-27T08:06:22.622Z,59.11
2023-04-27T08:10:01.447Z,57.52
2023-04-27T08:13:35.131Z,58.02
2023-04-27T08:17:12.502Z,57.99
2023-04-27T08:20:50.080Z,59.37
2023-04-27T08:24:46.488Z,59.39
2023-04-27T08:28:29.454Z,59.31
2023-04-27T08:32:15.330Z,57.05
2023-04-27T08:35:42.959Z,55.23
2023-04-27T08:39:40.220Z,56.92
2023-04-27T08:43:26.853Z,57.16
2023-04-27T08:47:10.877Z,58.24
2023-04-27T08:51:02.033Z,57.55
2023-04-27T08:54:27.274Z,58.25
2023-04-27T08:58:36.310Z,58.10
2023-04-27T09:02:20.747Z,58.24
2023-04-27T09:06:08.337Z,56.76
2023-04-27T09:09:34.673Z,56.59
2023-04-27T09:13:12.509Z,56.63
2023-04-27T09:17:08.912Z,57.35
2023-04-27T09:20:52.933Z,56.59
2023-04-27T09:24:18.032Z,56.68
2023-04-27T09:27:58.464Z,56.27
2023-04-27T09:31:34.476Z,55.95
2023-04-27T09:35:32.823Z,56.45
2023-04-27T09:39:08.668Z,56.25
2023-04-27T09:43:02.668Z,55.90
2023-04-27T09:46:48.590Z,55.04
2023-04-27T09:50:14.155Z,55.10
2023-04-27T09:53:58.798Z,55.21
2023-04-27T09:57:39.204Z,55.00
2023-04-27T10:01:42.644Z,55.18
2023-04-27T10:05:43.355Z,55.22
2023-04-27T10:09:10.684Z,55.07
2023-04-27T10:13:06.710Z,54.87
2023-04-27T10:16:43.924Z,54.86
2023-04-27T10:20:09.918Z,51.48
2023-04-27T10:23:50.785Z,51.08
2023-04-27T10:27:50.060Z,52.16
2023-04-27T10:31:16.812Z,53.25
2023-04-27T10:35:13.791Z,51.32
2023-04-27T10:38:41.365Z,48.74
2023-04-27T10:42:36.957Z,50.47
2023-04-27T10:46:22.245Z,49.98
2023-04-27T10:50:15.209Z,48.53
2023-04-27T10:53:40.713Z,44.61
2023-04-27T10:57:19.292Z,47.34
2023-04-27T11:00:55.954Z,47.79
2023-04-27T11:04:52.791Z,49.09
2023-04-27T11:08:44.097Z,50.05
2023-04-27T11:12:15.460Z,50.33
2023-04-27T11:16:09.482Z,50.79
2023-04-27T11:19:44.892Z,50.80
2023-04-27T11:23:12.182Z,49.86
2023-04-27T11:26:54.150Z,49.04
2023-04-27T11:30:27.939Z,49.24
2023-04-27T11:34:07.931Z,49.70
2023-04-27T11:37:42.688Z,50.96
2023-04-27T11:41:49.461Z,51.38
2023-04-27T11:45:15.249Z,51.37
2023-04-27T11:49:12.157Z,51.55
2023-04-27T11:53:00.154Z,51.99
2023-04-27T11:56:24.434Z,52.49
2023-04-27T12:00:21.159Z,52.24
2023-04-27T12:04:04.524Z,52.93
2023-04-27T12:07:28.902Z,52.74
2023-04-27T12:11:06.769Z,52.27
2023-04-27T12:14:46.086Z,51.94
2023-04-27T12:18:22.122Z,51.38
2023-04-27T12:21:59.619Z,51.64
2023-04-27T12:25:37.652Z,51.71
2023-04-27T12:29:15.428Z,52.14
2023-04-27T12:33:11.622Z,50.34
2023-04-27T12:36:56.344Z,50.49
2023-04-27T12:40:23.247Z,51.13
2023-04-27T12:43:57.912Z,47.63
2023-04-27T12:51:36.510Z,48.13
2023-04-27T12:55:32.142Z,48.24
2023-04-27T12:59:17.063Z,49.30
2023-04-27T13:02:43.561Z,47.66
2023-04-27T13:06:40.667Z,47.85
2023-04-27T13:10:08.298Z,45.38
2023-04-27T13:14:04.973Z,47.32
2023-04-27T13:17:52.357Z,47.33
2023-04-27T13:21:35.124Z,48.29
2023-04-27T13:24:59.334Z,48.02
2023-04-27T13:28:57.376Z,48.89
2023-04-27T13:32:22.817Z,48.48
2023-04-27T13:36:18.168Z,48.66
2023-04-27T13:39:45.733Z,48.62
2023-04-27T13:43:43.052Z,47.19
2023-04-27T13:47:31.291Z,46.04
2023-04-27T13:50:56.159Z,44.69
2023-04-27T13:54:52.823Z,42.34
2023-04-27T13:58:36.628Z,43.92
2023-04-27T14:02:24.960Z,41.95
2023-04-27T14:06:09.025Z,42.21
2023-04-27T14:09:34.811Z,43.16
2023-04-27T14:13:31.445Z,42.91
2023-04-27T14:17:15.226Z,43.56
2023-04-27T14:20:45.543Z,43.14
2023-04-27T14:24:17.183Z,44.42
2023-04-27T14:28:14.227Z,43.50
2023-04-27T14:32:00.112Z,43.04
2023-04-27T14:35:28.458Z,43.71
2023-04-27T14:39:06.820Z,43.24
2023-04-27T14:42:42.730Z,43.31
2023-04-27T14:46:22.136Z,44.31
2023-04-27T14:50:18.578Z,43.81
2023-04-27T14:54:06.516Z,43.16
2023-04-27T14:57:52.000Z,43.25
2023-04-27T15:01:36.792Z,43.87
2023-04-27T15:05:20.830Z,43.63
2023-04-27T15:09:09.582Z,43.70
2023-04-27T15:12:34.417Z,44.55
2023-04-27T15:16:16.557Z,44.59
2023-04-27T15:19:51.672Z,44.82
2023-04-27T15:23:45.969Z,44.67
2023-04-27T15:27:10.209Z,44.86
2023-04-27T15:31:13.685Z,45.68
2023-04-27T15:34:45.917Z,45.99
2023-04-27T15:38:34.274Z,45.93
2023-04-27T15:42:17.348Z,46.58
2023-04-27T15:46:04.836Z,47.27
2023-04-27T15:49:30.544Z,47.83
2023-04-27T15:53:08.256Z,47.90
2023-04-27T15:56:45.129Z,46.79
2023-04-27T16:00:41.393Z,46.79
2023-04-27T16:04:06.706Z,46.82
2023-04-27T16:08:02.326Z,46.79
2023-04-27T16:11:45.828Z,46.32
2023-04-27T16:15:29.047Z,46.09
2023-04-27T16:18:53.853Z,46.12
2023-04-27T16:22:31.840Z,46.10
2023-04-27T16:26:29.032Z,46.29
2023-04-27T16:30:15.550Z,46.52
2023-04-27T16:46:58.901Z,44.84
2023-04-27T16:50:55.860Z,44.48
2023-04-27T16:54:42.996Z,44.72
2023-04-27T16:58:07.672Z,44.74
2023-04-27T17:01:45.984Z,44.84
2023-04-27T17:05:41.871Z,45.00
2023-04-27T17:09:24.909Z,45.22
2023-04-27T17:13:10.299Z,45.54
2023-04-27T17:16:36.538Z,46.11
2023-04-27T17:20:13.908Z,46.38
2023-04-27T17:24:10.652Z,46.51
2023-04-27T17:27:40.010Z,46.66
2023-04-27T17:31:14.480Z,46.96
2023-04-27T17:35:09.834Z,47.57
2023-04-27T17:38:53.360Z,47.81
2023-04-27T17:42:37.489Z,48.74
2023-04-27T17:46:20.930Z,49.33
2023-04-27T17:50:04.903Z,50.14
2023-04-27T17:53:29.060Z,50.12
2023-04-27T17:57:25.491Z,50.81
2023-04-27T18:00:50.094Z,52.01
2023-04-27T18:04:46.248Z,51.81
2023-04-27T18:08:11.960Z,53.13
2023-04-27T18:12:10.166Z,52.35
2023-04-27T18:15:34.535Z,54.35
2023-04-27T18:19:31.710Z,54.20
2023-04-27T18:22:56.764Z,54.66
2023-04-27T18:26:52.585Z,54.65
2023-04-27T18:30:35.923Z,57.19
2023-04-27T18:34:21.152Z,56.98
2023-04-27T18:38:05.189Z,55.96
2023-04-27T18:41:29.804Z,56.64
2023-04-27T18:45:26.435Z,55.83
2023-04-27T18:49:10.900Z,56.48
2023-04-27T18:52:35.006Z,57.25
2023-04-27T18:56:32.180Z,58.24
2023-04-27T19:00:16.324Z,59.74
2023-04-27T19:03:40.623Z,62.44
2023-04-27T19:07:38.497Z,59.62
2023-04-27T19:11:03.624Z,59.76
2023-04-27T19:14:43.469Z,59.28
2023-04-27T19:18:19.285Z,59.83
2023-04-27T19:21:58.393Z,60.29
2023-04-27T19:25:34.418Z,59.77
2023-04-27T19:29:31.140Z,60.53
2023-04-27T19:33:15.923Z,59.57
2023-04-27T19:36:40.698Z,59.85
2023-04-27T19:40:18.411Z,59.61
2023-04-27T19:44:15.002Z,59.30
2023-04-27T19:47:59.986Z,59.76
2023-04-27T19:51:46.555Z,59.79
2023-04-27T19:55:13.789Z,60.07
2023-04-27T19:58:50.747Z,60.47
2023-04-27T20:02:52.712Z,60.34
2023-04-27T20:06:19.977Z,60.43
2023-04-27T20:10:17.307Z,60.37
2023-04-27T20:13:41.672Z,60.27
2023-04-27T20:17:20.292Z,60.65
2023-04-27T20:21:00.479Z,61.13
2023-04-27T20:24:35.508Z,61.49
2023-04-27T20:28:12.289Z,61.36
2023-04-27T20:32:13.674Z,61.12
2023-04-27T20:36:03.602Z,60.78
2023-04-27T20:39:35.832Z,61.15
2023-04-27T20:43:14.774Z,62.73
2023-04-27T20:46:50.145Z,63.01
2023-04-27T20:50:48.182Z,62.10
2023-04-27T20:54:33.688Z,62.08
2023-04-27T20:58:20.207Z,61.73
2023-04-27T21:01:47.236Z,61.88
2023-04-27T21:05:22.130Z,62.34
2023-04-27T21:09:18.960Z,62.99
2023-04-27T21:13:04.565Z,63.79
2023-04-27T21:16:48.872Z,64.19
2023-04-27T21:20:32.714Z,63.97
2023-04-27T21:24:06.680Z,63.67
2023-04-27T21:27:34.327Z,63.71
2023-04-27T21:31:14.557Z,63.45
2023-04-27T21:34:49.793Z,63.34
2023-04-27T21:38:27.395Z,63.43
2023-04-27T21:42:05.103Z,63.47
2023-04-27T21:46:01.656Z,63.29
2023-04-27T21:49:26.291Z,63.19
2023-04-27T21:53:22.408Z,63.38
2023-04-27T21:57:05.296Z,64.00
2023-04-27T22:00:29.403Z,64.38
2023-04-27T22:04:07.366Z,64.48
2023-04-27T22:07:45.922Z,64.52
2023-04-27T22:11:41.348Z,64.29
2023-04-27T22:15:24.851Z,64.10
2023-04-27T22:19:08.593Z,64.51
2023-04-27T22:22:51.918Z,64.55
2023-04-27T22:26:35.440Z,64.59
2023-04-27T22:30:18.320Z,64.62
2023-04-27T22:34:02.961Z,65.09
2023-04-27T22:37:29.626Z,65.68
2023-04-27T22:41:05.529Z,66.00
2023-04-27T22:45:02.183Z,65.91
2023-04-27T22:48:45.595Z,65.59
2023-04-27T22:52:32.934Z,65.64
2023-04-27T22:56:16.596Z,65.53
2023-04-27T22:59:41.119Z,65.56
2023-04-27T23:03:37.893Z,65.62
2023-04-27T23:07:02.365Z,65.54
2023-04-27T23:10:39.950Z,65.59
2023-04-27T23:14:36.757Z,65.67
2023-04-27T23:18:20.603Z,66.20
2023-04-27T23:21:44.827Z,66.28
2023-04-27T23:25:22.661Z,66.38
2023-04-27T23:29:00.282Z,66.52
2023-04-27T23:32:37.755Z,66.52
2023-04-27T23:36:34.419Z,66.45
2023-04-27T23:40:17.881Z,66.32
2023-04-27T23:43:43.192Z,66.12
2023-04-27T23:47:38.982Z,66.13
2023-04-27T23:51:04.804Z,66.14
2023-04-27T23:55:00.413Z,66.22
2023-04-27T23:58:44.121Z,66.32
